Shao Shan 5 — VRKO9 — position and weather

sailwx.info

Track history (hours):
 
Tides and Currents Weather Stations Pressure Air Temp Water Temp Dewpoint Dewpoint Depression Visibility Wind Speed Wind Dir Waves Ship Positions

Shao Shan 5

Last reported at 2017-Jan-04 17:30 UTC. Time now 2017-Jan-20 18:08 UTC.
Position N 01°16' E 104°02'.
Warning: this ship's position is 16 days out of date.

Length 225 m; draft 13.3 m.

Type: Cargo ship. MMSI: 477325700.

Date/timePositionNaut miles runAvg speedWind from/ knotsBaromVisibWave heightAir tempDewpointWater temp
2017-Jan-04 17:30N 01°16' E 104°02'2 0.4
2017-Jan-04 12:33N 01°18' E 104°00'0 0.0
2017-Jan-04 11:21N 01°18' E 104°00'0 0.0
2017-Jan-04 10:33N 01°18' E 104°00'1 0.7
2017-Jan-04 09:30N 01°17' E 104°01'4 4.7
2017-Jan-04 08:33N 01°14' E 103°57'63 7.4
2017-Jan-04 00:03N 01°33' E 102°57'4 8.2
2017-Jan-03 23:33N 01°35' E 102°53'12 8.3
2017-Jan-03 22:06N 01°41' E 102°43'5 8.2
2017-Jan-03 21:33N 01°42' E 102°39'9 8.6
2017-Jan-03 20:33N 01°46' E 102°31'  
Track history (hours):
 
Tides and Currents Weather Stations Pressure Air Temp Water Temp Dewpoint Dewpoint Depression Visibility Wind Speed Wind Dir Waves Ship Positions

Shao Shan 5

Last reported at 2017-Jan-04 17:30 UTC. Time now 2017-Jan-20 18:08 UTC.
Position N 01°16' E 104°02'.
Warning: this ship's position is 16 days out of date.

Length 225 m; draft 13.3 m.

Type: Cargo ship. MMSI: 477325700.

Date/timePositionNaut miles runAvg speedWind from/ knotsBaromVisibWave heightAir tempDewpointWater temp
2017-Jan-04 17:30N 01°16' E 104°02'2 0.4
2017-Jan-04 12:33N 01°18' E 104°00'0 0.0
2017-Jan-04 11:21N 01°18' E 104°00'0 0.0
2017-Jan-04 10:33N 01°18' E 104°00'1 0.7
2017-Jan-04 09:30N 01°17' E 104°01'4 4.7
2017-Jan-04 08:33N 01°14' E 103°57'63 7.4
2017-Jan-04 00:03N 01°33' E 102°57'4 8.2
2017-Jan-03 23:33N 01°35' E 102°53'12 8.3
2017-Jan-03 22:06N 01°41' E 102°43'5 8.2
2017-Jan-03 21:33N 01°42' E 102°39'9 8.6
2017-Jan-03 20:33N 01°46' E 102°31'  

Dump ship's entire track history